Flight Track Log - Related Links

Times and Time Zones

All times are in EDT time to prevent confusion due to time zone crossing. See the CSN6816 flight status page for this flight to view local times or setup timezone preferences in your user account.

Time Position Orientation Groundspeed Altitude Reporting Facility
EDT Latitude Longitude Course Direction KTS MPH feet Rate Location/Type
Mon 02:44:00 AM 37.1461 79.9693 38° Northeast  Level Estimated
Mon 02:45:00 AM 37.2536 80.0740 38° Northeast  Level Estimated
Mon 02:46:00 AM 37.3610 80.1789 38° Northeast  Level Estimated
Mon 02:47:00 AM 37.4683 80.2842 38° Northeast  Level Estimated
Mon 02:48:00 AM 37.5755 80.3898 38° Northeast  Level Estimated
Mon 02:49:00 AM 37.6826 80.4957 38° Northeast  Level Estimated
Mon 02:50:00 AM 37.7896 80.6019 38° Northeast  Level Estimated
Mon 02:51:00 AM 37.8965 80.7084 38° Northeast  Level Estimated
Mon 02:52:00 AM 38.0034 80.8151 38° Northeast  Level Estimated
Mon 02:53:00 AM 38.1101 80.9223 38° Northeast  Level Estimated
Mon 02:54:00 AM 38.2167 81.0297 38° Northeast  Level Estimated
Mon 02:55:00 AM 38.3233 81.1374 38° Northeast  Level Estimated
Mon 02:56:00 AM 38.4297 81.2455 38° Northeast  Level Estimated
Mon 02:57:00 AM 38.5361 81.3539 39° Northeast  Level Estimated
Mon 02:58:00 AM 38.6423 81.4626 39° Northeast  Level Estimated
Mon 02:59:00 AM 38.7484 81.5716 39° Northeast  Level Estimated
Mon 03:00:00 AM 38.8545 81.6809 39° Northeast  Level Estimated
Mon 03:01:00 AM 38.9604 81.7906 39° Northeast  Level Estimated
Mon 03:02:00 AM 39.0662 81.9006 39° Northeast  Level Estimated
Mon 03:03:00 AM 39.1720 82.0109 39° Northeast  Level Estimated
Mon 03:04:00 AM 39.2776 82.1216 39° Northeast  Level Estimated
Mon 03:05:00 AM 39.3831 82.2326 39° Northeast  Level Estimated
Mon 03:06:00 AM 39.4885 82.3439 39° Northeast  Level Estimated
Mon 03:07:00 AM 39.5938 82.4556 39° Northeast  Level Estimated
Mon 03:08:00 AM 39.6990 82.5676 39° Northeast  Level Estimated
Mon 03:09:00 AM 39.8041 82.6800 39° Northeast  Level Estimated
Mon 03:10:00 AM 39.9091 82.7927 39° Northeast  Level Estimated
Mon 03:11:00 AM 40.0140 82.9057 40° Northeast  Level Estimated
Mon 03:12:00 AM 40.1187 83.0191 40° Northeast  Level Estimated
Mon 03:13:00 AM 40.2234 83.1328 40° Northeast  Level Estimated
Mon 03:14:00 AM 40.3279 83.2469 40° Northeast  Level Estimated
Mon 03:15:00 AM 40.4323 83.3614 40° Northeast  Level Estimated
Mon 03:16:00 AM 40.5366 83.4762 40° Northeast  Level Estimated
Mon 03:17:00 AM 40.6408 83.5913 40° Northeast  Level Estimated
Mon 03:18:00 AM 40.7449 83.7068 40° Northeast  Level Estimated
Mon 03:19:00 AM 40.8489 83.8227 40° Northeast  Level Estimated
Mon 03:20:00 AM 40.9527 83.9390 40° Northeast  Level Estimated
Mon 03:21:00 AM 41.0565 84.0556 40° Northeast  Level Estimated
Mon 03:22:00 AM 41.1601 84.1726 40° Northeast  Level Estimated
Mon 03:23:00 AM 41.2636 84.2899 40° Northeast  Level Estimated
Mon 03:24:00 AM 41.3670 84.4076 41° Northeast  Level Estimated
Mon 03:25:00 AM 41.4702 84.5257 41° Northeast  Level Estimated
Mon 03:26:00 AM 41.5734 84.6442 41° Northeast  Level Estimated
Mon 03:27:00 AM 41.6764 84.7631 41° Northeast  Level Estimated
Mon 03:28:00 AM 41.7793 84.8823 41° Northeast  Level Estimated
Mon 03:29:00 AM 41.8820 85.0019 41° Northeast  Level Estimated
Mon 03:30:00 AM 41.9847 85.1219 41° Northeast  Level Estimated
Mon 03:31:00 AM 42.0872 85.2423 41° Northeast  Level Estimated
Mon 03:32:00 AM 42.1896 85.3631 41° Northeast  Level Estimated
Mon 03:33:00 AM 42.2919 85.4843 41° Northeast  Level Estimated
Mon 03:34:00 AM 42.3940 85.6058 41° Northeast  Level Estimated
Mon 03:35:00 AM 42.4960 85.7278 41° Northeast  Level Estimated
Mon 03:36:00 AM 42.5979 85.8501 41° Northeast  Level Estimated
Mon 03:37:00 AM 42.6996 85.9729 42° Northeast  Level Estimated
Mon 03:38:00 AM 42.8013 86.0960 42° Northeast  Level Estimated
Mon 03:39:00 AM 42.9027 86.2196 42° Northeast  Level Estimated
Mon 03:40:00 AM 43.0041 86.3436 42° Northeast  Level Estimated
Mon 03:41:00 AM 43.1053 86.4680 42° Northeast  Level Estimated
Mon 03:42:00 AM 43.2064 86.5928 42° Northeast  Level Estimated
Mon 03:43:00 AM 43.3073 86.7180 42° Northeast  Level Estimated
Mon 03:44:00 AM 43.4081 86.8436 42° Northeast  Level Estimated
Mon 03:45:00 AM 43.5088 86.9697 42° Northeast  Level Estimated
Mon 03:46:00 AM 43.6093 87.0961 42° Northeast  Level Estimated
Mon 03:47:00 AM 43.7097 87.2230 42° Northeast  Level Estimated
Mon 03:48:00 AM 43.8100 87.3503 42° Northeast  Level Estimated
Mon 03:49:00 AM 43.9071 87.4742 43° Northeast  Level Estimated
Mon 03:50:00 AM 43.9071 87.4742 144° Southeast  Level Estimated
Mon 03:51:00 AM 43.9071 87.4742 144° Southeast  Level Estimated
Mon 03:52:00 AM 43.9071 87.4742 144° Southeast  Level Estimated
Mon 03:53:00 AM 43.9071 87.4742 144° Southeast  Level Estimated
Mon 03:54:00 AM 43.9071 87.4742 144° Southeast  Level Estimated
Mon 03:55:00 AM 43.9071 87.4742 144° Southeast  Level Estimated
Mon 03:56:00 AM 43.9071 87.4742 144° Southeast  Level Estimated
Mon 03:57:00 AM 43.9071 87.4742 144° Southeast  Level Estimated
Mon 03:58:00 AM 43.9071 87.4742 144° Southeast  Level Estimated
Mon 03:59:00 AM 43.9071 87.4742 144° Southeast  Level Estimated
Mon 04:00:00 AM 43.9071 87.4742 144° Southeast  Level Estimated
Mon 04:01:00 AM 43.9071 87.4742 144° Southeast  Level Estimated
Mon 04:02:00 AM 43.9071 87.4742 144° Southeast  Level Estimated
Mon 04:03:00 AM 43.9071 87.4742 144° Southeast  Level Estimated
Mon 04:04:00 AM 43.9071 87.4742 144° Southeast  Level Estimated
Mon 04:05:00 AM 43.9071 87.4742 144° Southeast  Level Estimated

Login

Don't have an account? Register now (free) for customized features, flight alerts, and more!